Lyman — WDD4170 — position and weather

sailwx.info

Track history (hours):
 
Tides and Currents Weather Stations Pressure Air Temp Water Temp Dewpoint Dewpoint Depression Visibility Wind Speed Wind Dir Waves Ship Positions

Lyman

Owner: G.T. 102, New Haven, CT. More information available from US FCC via Universal Licensing System and Coast Guard Vessel Documentation Center.

Last reported at 2018-Aug-09 17:04 UTC. Time now 2018-Aug-17 11:13 UTC.
Position N 41°11' W 072°45'.

Type: Towing. MMSI: 367141180.

Date/timePositionNaut miles runAvg speedWind from/ knotsBaromVisibWave heightAir tempDewpointWater temp
2018-Aug-09 17:04N 41°11' W 072°45'1 5.9
2018-Aug-09 16:53N 41°11' W 072°43'2 5.9
2018-Aug-09 16:28N 41°10' W 072°40'3 5.9
2018-Aug-09 16:00N 41°10' W 072°37'2 4.2
2018-Aug-09 15:29N 41°08' W 072°36'5 7.5
2018-Aug-09 14:49N 41°08' W 072°43'  
2018-Aug-06 13:20N 41°12' W 072°39'310.0
2018-Aug-06 13:00N 41°11' W 072°35'5 9.5
2018-Aug-06 12:30N 41°10' W 072°29'5 9.8
2018-Aug-06 12:00N 41°12' W 072°22'49 8.9
2018-Aug-06 06:34N 41°32' W 071°24'0 0.7
2018-Aug-06 06:30N 41°32' W 071°24'49 4.3
2018-Aug-05 19:05N 41°11' W 072°23'1 5.2
2018-Aug-05 18:54N 41°11' W 072°24'2 5.3
2018-Aug-05 18:30N 41°11' W 072°27'3 5.4
2018-Aug-05 18:00N 41°10' W 072°31'3 5.5
2018-Aug-05 17:30N 41°09' W 072°34'3 5.5
2018-Aug-05 17:00N 41°08' W 072°38'3 5.8
2018-Aug-05 16:30N 41°08' W 072°41'3 5.9
2018-Aug-05 15:59N 41°07' W 072°45'58 6.1
2018-Aug-05 06:22N 40°46' W 073°57'3 8.4
2018-Aug-05 06:00N 40°43' W 073°58'4 7.6
2018-Aug-05 05:30N 40°40' W 074°02'3 6.6
2018-Aug-05 05:00N 40°37' W 074°03'4 7.3
2018-Aug-05 04:30N 40°33' W 074°02'4 7.2
2018-Aug-05 03:54N 40°30' W 073°58'47 7.1
2018-Aug-04 21:19N 39°44' W 073°60'3 8.0
2018-Aug-04 21:00N 39°41' W 074°01'4 7.9
2018-Aug-04 20:30N 39°38' W 074°03'4 7.9
2018-Aug-04 20:00N 39°34' W 074°05'4 7.9
2018-Aug-04 19:30N 39°31' W 074°08'4 7.9
2018-Aug-04 18:59N 39°27' W 074°10'  
2018-Aug-02 03:43N 38°03' W 076°14'56 7.9
2018-Aug-01 20:37N 38°58' W 076°24'2 9.1
2018-Aug-01 20:22N 39°00' W 076°23'4 8.8
2018-Aug-01 19:57N 39°03' W 076°20'5 7.3
2018-Aug-01 19:18N 39°08' W 076°19'9 8.3
2018-Aug-01 18:16N 39°16' W 076°14'2 8.7
2018-Aug-01 17:59N 39°18' W 076°13'4 8.2
2018-Aug-01 17:30N 39°21' W 076°10'12 7.6
2018-Aug-01 15:53N 39°29' W 075°58'3 7.0
2018-Aug-01 15:31N 39°30' W 075°55'3 6.4
2018-Aug-01 15:00N 39°32' W 075°51'3 5.8
2018-Aug-01 14:30N 39°32' W 075°48'6 6.2
2018-Aug-01 13:30N 39°33' W 075°40'3 6.3
2018-Aug-01 13:00N 39°33' W 075°36'3 5.1
2018-Aug-01 12:30N 39°32' W 075°33'3 6.2
2018-Aug-01 12:00N 39°29' W 075°34'3 5.9
2018-Aug-01 11:30N 39°27' W 075°33'3 6.3
2018-Aug-01 11:00N 39°24' W 075°30'3 6.6
2018-Aug-01 10:30N 39°22' W 075°27'3 6.5
2018-Aug-01 10:00N 39°19' W 075°24'3 6.5
2018-Aug-01 09:30N 39°17' W 075°22'4 7.1
2018-Aug-01 09:00N 39°14' W 075°19'4 7.3
2018-Aug-01 08:30N 39°11' W 075°16'4 7.5
2018-Aug-01 08:00N 39°08' W 075°14'4 7.5
2018-Aug-01 07:30N 39°05' W 075°11'4 7.6
2018-Aug-01 07:00N 39°01' W 075°09'4 7.6
2018-Aug-01 06:29N 38°58' W 075°07'4 7.7
2018-Aug-01 06:00N 38°54' W 075°05'4 7.5
2018-Aug-01 05:30N 38°51' W 075°03'4 8.1
2018-Aug-01 04:59N 38°48' W 074°59'4 8.9
2018-Aug-01 04:30N 38°49' W 074°54'7 8.3
2018-Aug-01 03:41N 38°53' W 074°47'2 8.6
2018-Aug-01 03:29N 38°55' W 074°46'4 8.7
2018-Aug-01 03:00N 38°58' W 074°43'5 8.6
2018-Aug-01 02:25N 39°02' W 074°38'4 8.6
2018-Aug-01 01:58N 39°04' W 074°34'4 8.6
2018-Aug-01 01:30N 39°07' W 074°31'32 8.2
2018-Jul-31 21:39N 39°33' W 074°06'2 8.3
2018-Jul-31 21:28N 39°34' W 074°05'4 8.2
2018-Jul-31 21:00N 39°37' W 074°03'4 8.4
2018-Jul-31 20:30N 39°41' W 074°01'4 8.3
2018-Jul-31 20:00N 39°45' W 073°59'4 8.2
2018-Jul-31 19:30N 39°49' W 073°58'47 7.3
2018-Jul-31 13:03N 40°36' W 074°03'0 7.5
2018-Jul-31 13:00N 40°37' W 074°03'4 7.2
2018-Jul-31 12:30N 40°40' W 074°02'3 6.6
2018-Jul-31 12:00N 40°42' W 073°59'3 6.4
2018-Jul-31 11:30N 40°45' W 073°57'64 8.2
2018-Jul-31 03:41N 41°08' W 072°38'2 9.4
2018-Jul-31 03:30N 41°09' W 072°36'5 9.8
2018-Jul-31 03:00N 41°10' W 072°30'510.2
2018-Jul-31 02:30N 41°11' W 072°23'5 9.9
2018-Jul-31 02:00N 41°13' W 072°17'4 0.9
2018-Jul-30 21:57N 41°12' W 072°22'512.2
2018-Jul-30 21:30N 41°11' W 072°29'611.7
2018-Jul-30 21:00N 41°11' W 072°37'611.2
2018-Jul-30 20:30N 41°12' W 072°44'  
Track history (hours):
 
Tides and Currents Weather Stations Pressure Air Temp Water Temp Dewpoint Dewpoint Depression Visibility Wind Speed Wind Dir Waves Ship Positions

Lyman

Owner: G.T. 102, New Haven, CT. More information available from US FCC via Universal Licensing System and Coast Guard Vessel Documentation Center.

Last reported at 2018-Aug-09 17:04 UTC. Time now 2018-Aug-17 11:13 UTC.
Position N 41°11' W 072°45'.

Type: Towing. MMSI: 367141180.

Date/timePositionNaut miles runAvg speedWind from/ knotsBaromVisibWave heightAir tempDewpointWater temp
2018-Aug-09 17:04N 41°11' W 072°45'1 5.9
2018-Aug-09 16:53N 41°11' W 072°43'2 5.9
2018-Aug-09 16:28N 41°10' W 072°40'3 5.9
2018-Aug-09 16:00N 41°10' W 072°37'2 4.2
2018-Aug-09 15:29N 41°08' W 072°36'5 7.5
2018-Aug-09 14:49N 41°08' W 072°43'  
2018-Aug-06 13:20N 41°12' W 072°39'310.0
2018-Aug-06 13:00N 41°11' W 072°35'5 9.5
2018-Aug-06 12:30N 41°10' W 072°29'5 9.8
2018-Aug-06 12:00N 41°12' W 072°22'49 8.9
2018-Aug-06 06:34N 41°32' W 071°24'0 0.7
2018-Aug-06 06:30N 41°32' W 071°24'49 4.3
2018-Aug-05 19:05N 41°11' W 072°23'1 5.2
2018-Aug-05 18:54N 41°11' W 072°24'2 5.3
2018-Aug-05 18:30N 41°11' W 072°27'3 5.4
2018-Aug-05 18:00N 41°10' W 072°31'3 5.5
2018-Aug-05 17:30N 41°09' W 072°34'3 5.5
2018-Aug-05 17:00N 41°08' W 072°38'3 5.8
2018-Aug-05 16:30N 41°08' W 072°41'3 5.9
2018-Aug-05 15:59N 41°07' W 072°45'58 6.1
2018-Aug-05 06:22N 40°46' W 073°57'3 8.4
2018-Aug-05 06:00N 40°43' W 073°58'4 7.6
2018-Aug-05 05:30N 40°40' W 074°02'3 6.6
2018-Aug-05 05:00N 40°37' W 074°03'4 7.3
2018-Aug-05 04:30N 40°33' W 074°02'4 7.2
2018-Aug-05 03:54N 40°30' W 073°58'47 7.1
2018-Aug-04 21:19N 39°44' W 073°60'3 8.0
2018-Aug-04 21:00N 39°41' W 074°01'4 7.9
2018-Aug-04 20:30N 39°38' W 074°03'4 7.9
2018-Aug-04 20:00N 39°34' W 074°05'4 7.9
2018-Aug-04 19:30N 39°31' W 074°08'4 7.9
2018-Aug-04 18:59N 39°27' W 074°10'  
2018-Aug-02 03:43N 38°03' W 076°14'56 7.9
2018-Aug-01 20:37N 38°58' W 076°24'2 9.1
2018-Aug-01 20:22N 39°00' W 076°23'4 8.8
2018-Aug-01 19:57N 39°03' W 076°20'5 7.3
2018-Aug-01 19:18N 39°08' W 076°19'9 8.3
2018-Aug-01 18:16N 39°16' W 076°14'2 8.7
2018-Aug-01 17:59N 39°18' W 076°13'4 8.2
2018-Aug-01 17:30N 39°21' W 076°10'12 7.6
2018-Aug-01 15:53N 39°29' W 075°58'3 7.0
2018-Aug-01 15:31N 39°30' W 075°55'3 6.4
2018-Aug-01 15:00N 39°32' W 075°51'3 5.8
2018-Aug-01 14:30N 39°32' W 075°48'6 6.2
2018-Aug-01 13:30N 39°33' W 075°40'3 6.3
2018-Aug-01 13:00N 39°33' W 075°36'3 5.1
2018-Aug-01 12:30N 39°32' W 075°33'3 6.2
2018-Aug-01 12:00N 39°29' W 075°34'3 5.9
2018-Aug-01 11:30N 39°27' W 075°33'3 6.3
2018-Aug-01 11:00N 39°24' W 075°30'3 6.6
2018-Aug-01 10:30N 39°22' W 075°27'3 6.5
2018-Aug-01 10:00N 39°19' W 075°24'3 6.5
2018-Aug-01 09:30N 39°17' W 075°22'4 7.1
2018-Aug-01 09:00N 39°14' W 075°19'4 7.3
2018-Aug-01 08:30N 39°11' W 075°16'4 7.5
2018-Aug-01 08:00N 39°08' W 075°14'4 7.5
2018-Aug-01 07:30N 39°05' W 075°11'4 7.6
2018-Aug-01 07:00N 39°01' W 075°09'4 7.6
2018-Aug-01 06:29N 38°58' W 075°07'4 7.7
2018-Aug-01 06:00N 38°54' W 075°05'4 7.5
2018-Aug-01 05:30N 38°51' W 075°03'4 8.1
2018-Aug-01 04:59N 38°48' W 074°59'4 8.9
2018-Aug-01 04:30N 38°49' W 074°54'7 8.3
2018-Aug-01 03:41N 38°53' W 074°47'2 8.6
2018-Aug-01 03:29N 38°55' W 074°46'4 8.7
2018-Aug-01 03:00N 38°58' W 074°43'5 8.6
2018-Aug-01 02:25N 39°02' W 074°38'4 8.6
2018-Aug-01 01:58N 39°04' W 074°34'4 8.6
2018-Aug-01 01:30N 39°07' W 074°31'32 8.2
2018-Jul-31 21:39N 39°33' W 074°06'2 8.3
2018-Jul-31 21:28N 39°34' W 074°05'4 8.2
2018-Jul-31 21:00N 39°37' W 074°03'4 8.4
2018-Jul-31 20:30N 39°41' W 074°01'4 8.3
2018-Jul-31 20:00N 39°45' W 073°59'4 8.2
2018-Jul-31 19:30N 39°49' W 073°58'47 7.3
2018-Jul-31 13:03N 40°36' W 074°03'0 7.5
2018-Jul-31 13:00N 40°37' W 074°03'4 7.2
2018-Jul-31 12:30N 40°40' W 074°02'3 6.6
2018-Jul-31 12:00N 40°42' W 073°59'3 6.4
2018-Jul-31 11:30N 40°45' W 073°57'64 8.2
2018-Jul-31 03:41N 41°08' W 072°38'2 9.4
2018-Jul-31 03:30N 41°09' W 072°36'5 9.8
2018-Jul-31 03:00N 41°10' W 072°30'510.2
2018-Jul-31 02:30N 41°11' W 072°23'5 9.9
2018-Jul-31 02:00N 41°13' W 072°17'4 0.9
2018-Jul-30 21:57N 41°12' W 072°22'512.2
2018-Jul-30 21:30N 41°11' W 072°29'611.7
2018-Jul-30 21:00N 41°11' W 072°37'611.2
2018-Jul-30 20:30N 41°12' W 072°44'  

Dump ship's entire track history